sensor_id;sensor_type;location;lat;lon;timestamp;P1;durP1;ratioP1;P2;durP2;ratioP2
55210;SDS011;41082;52.822;6.666;2023-07-09T00:01:37;7.43;;;6.45;;
55210;SDS011;41082;52.822;6.666;2023-07-09T00:04:03;7.70;;;5.65;;
55210;SDS011;41082;52.822;6.666;2023-07-09T00:06:29;9.05;;;5.53;;
55210;SDS011;41082;52.822;6.666;2023-07-09T00:08:54;6.55;;;5.60;;
55210;SDS011;41082;52.822;6.666;2023-07-09T00:11:20;7.45;;;5.70;;
55210;SDS011;41082;52.822;6.666;2023-07-09T00:13:46;6.18;;;5.18;;
55210;SDS011;41082;52.822;6.666;2023-07-09T00:16:12;7.43;;;6.07;;
55210;SDS011;41082;52.822;6.666;2023-07-09T00:18:43;6.22;;;5.30;;
55210;SDS011;41082;52.822;6.666;2023-07-09T00:21:09;7.97;;;4.90;;
55210;SDS011;41082;52.822;6.666;2023-07-09T00:23:35;7.45;;;5.38;;
55210;SDS011;41082;52.822;6.666;2023-07-09T00:26:04;8.57;;;5.97;;
55210;SDS011;41082;52.822;6.666;2023-07-09T00:28:38;7.68;;;6.00;;
55210;SDS011;41082;52.822;6.666;2023-07-09T00:31:05;7.65;;;5.97;;
55210;SDS011;41082;52.822;6.666;2023-07-09T00:33:32;8.27;;;6.43;;
55210;SDS011;41082;52.822;6.666;2023-07-09T00:35:58;7.68;;;6.03;;
55210;SDS011;41082;52.822;6.666;2023-07-09T00:38:24;10.18;;;6.32;;
55210;SDS011;41082;52.822;6.666;2023-07-09T00:43:24;7.35;;;5.70;;
55210;SDS011;41082;52.822;6.666;2023-07-09T00:48:38;8.02;;;6.30;;
55210;SDS011;41082;52.822;6.666;2023-07-09T00:51:07;7.43;;;5.95;;
55210;SDS011;41082;52.822;6.666;2023-07-09T00:53:39;8.38;;;5.70;;
55210;SDS011;41082;52.822;6.666;2023-07-09T00:56:11;7.25;;;6.28;;
55210;SDS011;41082;52.822;6.666;2023-07-09T00:58:41;7.73;;;6.90;;
55210;SDS011;41082;52.822;6.666;2023-07-09T01:01:12;10.77;;;6.25;;
55210;SDS011;41082;52.822;6.666;2023-07-09T01:03:50;7.90;;;6.03;;
55210;SDS011;41082;52.822;6.666;2023-07-09T01:06:20;8.95;;;6.55;;
55210;SDS011;41082;52.822;6.666;2023-07-09T01:08:55;8.23;;;6.18;;
55210;SDS011;41082;52.822;6.666;2023-07-09T01:11:21;6.55;;;5.13;;
55210;SDS011;41082;52.822;6.666;2023-07-09T01:13:51;6.32;;;5.43;;
55210;SDS011;41082;52.822;6.666;2023-07-09T01:16:19;8.93;;;5.93;;
55210;SDS011;41082;52.822;6.666;2023-07-09T01:18:49;6.63;;;5.30;;
55210;SDS011;41082;52.822;6.666;2023-07-09T01:21:15;7.97;;;5.18;;
55210;SDS011;41082;52.822;6.666;2023-07-09T01:23:42;5.90;;;5.32;;
55210;SDS011;41082;52.822;6.666;2023-07-09T01:26:16;8.57;;;6.28;;
55210;SDS011;41082;52.822;6.666;2023-07-09T01:28:43;7.88;;;5.90;;
55210;SDS011;41082;52.822;6.666;2023-07-09T01:31:11;7.13;;;5.80;;
55210;SDS011;41082;52.822;6.666;2023-07-09T01:33:38;8.98;;;5.85;;
55210;SDS011;41082;52.822;6.666;2023-07-09T01:36:08;7.70;;;6.45;;
55210;SDS011;41082;52.822;6.666;2023-07-09T01:38:35;7.53;;;5.40;;
55210;SDS011;41082;52.822;6.666;2023-07-09T01:41:01;8.82;;;5.95;;
55210;SDS011;41082;52.822;6.666;2023-07-09T01:43:27;5.70;;;4.72;;
55210;SDS011;41082;52.822;6.666;2023-07-09T01:45:54;7.93;;;5.65;;
55210;SDS011;41082;52.822;6.666;2023-07-09T01:48:22;9.65;;;5.93;;
55210;SDS011;41082;52.822;6.666;2023-07-09T01:50:49;7.75;;;5.85;;
55210;SDS011;41082;52.822;6.666;2023-07-09T01:53:17;8.05;;;5.25;;
55210;SDS011;41082;52.822;6.666;2023-07-09T01:55:48;7.78;;;6.45;;
55210;SDS011;41082;52.822;6.666;2023-07-09T01:58:15;7.43;;;6.50;;
55210;SDS011;41082;52.822;6.666;2023-07-09T02:00:41;8.82;;;5.50;;
55210;SDS011;41082;52.822;6.666;2023-07-09T02:03:07;8.98;;;6.03;;
55210;SDS011;41082;52.822;6.666;2023-07-09T02:05:35;9.85;;;5.50;;
55210;SDS011;41082;52.822;6.666;2023-07-09T02:08:01;8.90;;;6.03;;
55210;SDS011;41082;52.822;6.666;2023-07-09T02:10:27;7.40;;;5.90;;
55210;SDS011;41082;52.822;6.666;2023-07-09T02:12:53;10.40;;;6.15;;
55210;SDS011;41082;52.822;6.666;2023-07-09T02:15:19;9.27;;;5.97;;
55210;SDS011;41082;52.822;6.666;2023-07-09T02:17:45;9.32;;;5.82;;
55210;SDS011;41082;52.822;6.666;2023-07-09T02:20:11;8.90;;;6.38;;
55210;SDS011;41082;52.822;6.666;2023-07-09T02:22:39;8.32;;;6.03;;
55210;SDS011;41082;52.822;6.666;2023-07-09T02:25:05;7.85;;;5.97;;
55210;SDS011;41082;52.822;6.666;2023-07-09T02:27:32;7.05;;;5.60;;
55210;SDS011;41082;52.822;6.666;2023-07-09T02:29:58;6.45;;;5.75;;
55210;SDS011;41082;52.822;6.666;2023-07-09T02:32:26;10.25;;;7.10;;
55210;SDS011;41082;52.822;6.666;2023-07-09T02:34:52;6.35;;;5.32;;
55210;SDS011;41082;52.822;6.666;2023-07-09T02:37:20;11.48;;;5.63;;
55210;SDS011;41082;52.822;6.666;2023-07-09T02:39:47;8.80;;;5.93;;
55210;SDS011;41082;52.822;6.666;2023-07-09T02:42:13;5.75;;;5.15;;
55210;SDS011;41082;52.822;6.666;2023-07-09T02:44:40;9.27;;;5.95;;
55210;SDS011;41082;52.822;6.666;2023-07-09T02:47:07;6.60;;;5.75;;
55210;SDS011;41082;52.822;6.666;2023-07-09T02:49:34;9.57;;;5.80;;
55210;SDS011;41082;52.822;6.666;2023-07-09T02:52:00;8.45;;;6.40;;
55210;SDS011;41082;52.822;6.666;2023-07-09T02:54:25;10.30;;;5.57;;
55210;SDS011;41082;52.822;6.666;2023-07-09T02:56:51;7.32;;;5.50;;
55210;SDS011;41082;52.822;6.666;2023-07-09T02:59:17;6.45;;;5.32;;
55210;SDS011;41082;52.822;6.666;2023-07-09T03:01:42;6.57;;;5.85;;
55210;SDS011;41082;52.822;6.666;2023-07-09T03:04:08;8.70;;;6.13;;
55210;SDS011;41082;52.822;6.666;2023-07-09T03:06:35;9.55;;;5.47;;
55210;SDS011;41082;52.822;6.666;2023-07-09T03:09:01;9.75;;;6.43;;
55210;SDS011;41082;52.822;6.666;2023-07-09T03:11:29;8.07;;;5.55;;
55210;SDS011;41082;52.822;6.666;2023-07-09T03:13:56;7.43;;;6.00;;
55210;SDS011;41082;52.822;6.666;2023-07-09T03:16:22;6.68;;;5.93;;
55210;SDS011;41082;52.822;6.666;2023-07-09T03:18:48;7.93;;;6.45;;
55210;SDS011;41082;52.822;6.666;2023-07-09T03:21:14;7.93;;;6.28;;
55210;SDS011;41082;52.822;6.666;2023-07-09T03:23:39;7.93;;;6.22;;
55210;SDS011;41082;52.822;6.666;2023-07-09T03:26:06;6.95;;;5.43;;
55210;SDS011;41082;52.822;6.666;2023-07-09T03:28:31;6.80;;;6.10;;
55210;SDS011;41082;52.822;6.666;2023-07-09T03:30:58;6.82;;;5.18;;
55210;SDS011;41082;52.822;6.666;2023-07-09T03:33:24;9.05;;;6.10;;
55210;SDS011;41082;52.822;6.666;2023-07-09T03:35:50;9.13;;;6.30;;
55210;SDS011;41082;52.822;6.666;2023-07-09T03:38:16;7.72;;;5.88;;
55210;SDS011;41082;52.822;6.666;2023-07-09T03:40:42;6.60;;;5.43;;
55210;SDS011;41082;52.822;6.666;2023-07-09T03:43:08;7.95;;;5.88;;
55210;SDS011;41082;52.822;6.666;2023-07-09T03:45:35;7.75;;;6.15;;
55210;SDS011;41082;52.822;6.666;2023-07-09T03:48:02;7.03;;;5.60;;
55210;SDS011;41082;52.822;6.666;2023-07-09T03:50:28;6.70;;;5.70;;
55210;SDS011;41082;52.822;6.666;2023-07-09T03:52:53;7.22;;;6.47;;
55210;SDS011;41082;52.822;6.666;2023-07-09T03:55:19;7.53;;;5.43;;
55210;SDS011;41082;52.822;6.666;2023-07-09T03:57:45;7.25;;;6.20;;
55210;SDS011;41082;52.822;6.666;2023-07-09T04:00:12;7.30;;;6.05;;
55210;SDS011;41082;52.822;6.666;2023-07-09T04:02:38;7.72;;;5.50;;
55210;SDS011;41082;52.822;6.666;2023-07-09T04:05:05;9.50;;;6.25;;
55210;SDS011;41082;52.822;6.666;2023-07-09T04:07:31;7.25;;;6.10;;
55210;SDS011;41082;52.822;6.666;2023-07-09T04:09:57;8.25;;;5.70;;
55210;SDS011;41082;52.822;6.666;2023-07-09T04:12:22;7.50;;;5.88;;
55210;SDS011;41082;52.822;6.666;2023-07-09T04:14:48;7.55;;;5.97;;
55210;SDS011;41082;52.822;6.666;2023-07-09T04:17:14;8.32;;;5.97;;
55210;SDS011;41082;52.822;6.666;2023-07-09T04:19:39;9.48;;;6.22;;
55210;SDS011;41082;52.822;6.666;2023-07-09T04:22:05;7.68;;;6.30;;
55210;SDS011;41082;52.822;6.666;2023-07-09T04:24:30;8.95;;;6.35;;
55210;SDS011;41082;52.822;6.666;2023-07-09T04:26:58;10.20;;;6.70;;
55210;SDS011;41082;52.822;6.666;2023-07-09T04:29:28;9.85;;;6.35;;
55210;SDS011;41082;52.822;6.666;2023-07-09T04:31:59;8.27;;;6.38;;
55210;SDS011;41082;52.822;6.666;2023-07-09T04:34:24;8.10;;;6.38;;
55210;SDS011;41082;52.822;6.666;2023-07-09T04:36:50;7.93;;;6.40;;
55210;SDS011;41082;52.822;6.666;2023-07-09T04:39:16;8.93;;;5.93;;
55210;SDS011;41082;52.822;6.666;2023-07-09T04:41:41;8.15;;;5.57;;
55210;SDS011;41082;52.822;6.666;2023-07-09T04:44:07;9.40;;;5.47;;
55210;SDS011;41082;52.822;6.666;2023-07-09T04:46:33;7.10;;;5.47;;
55210;SDS011;41082;52.822;6.666;2023-07-09T04:48:58;8.63;;;6.78;;
55210;SDS011;41082;52.822;6.666;2023-07-09T04:51:25;8.57;;;6.43;;
55210;SDS011;41082;52.822;6.666;2023-07-09T04:53:51;7.70;;;5.72;;
55210;SDS011;41082;52.822;6.666;2023-07-09T04:56:17;9.15;;;5.97;;
55210;SDS011;41082;52.822;6.666;2023-07-09T04:58:43;8.73;;;5.97;;
55210;SDS011;41082;52.822;6.666;2023-07-09T05:01:08;7.40;;;5.50;;
55210;SDS011;41082;52.822;6.666;2023-07-09T05:03:34;8.50;;;6.32;;
55210;SDS011;41082;52.822;6.666;2023-07-09T05:06:00;8.95;;;6.40;;
55210;SDS011;41082;52.822;6.666;2023-07-09T05:08:25;9.77;;;6.00;;
55210;SDS011;41082;52.822;6.666;2023-07-09T05:10:51;7.75;;;6.10;;
55210;SDS011;41082;52.822;6.666;2023-07-09T05:13:18;9.60;;;6.10;;
55210;SDS011;41082;52.822;6.666;2023-07-09T05:15:45;9.88;;;6.07;;
55210;SDS011;41082;52.822;6.666;2023-07-09T05:18:12;7.18;;;5.20;;
55210;SDS011;41082;52.822;6.666;2023-07-09T05:20:39;8.00;;;5.90;;
55210;SDS011;41082;52.822;6.666;2023-07-09T05:23:05;7.60;;;5.75;;
55210;SDS011;41082;52.822;6.666;2023-07-09T05:25:31;7.65;;;6.45;;
55210;SDS011;41082;52.822;6.666;2023-07-09T05:27:56;8.30;;;6.25;;
55210;SDS011;41082;52.822;6.666;2023-07-09T05:30:22;9.20;;;6.63;;
55210;SDS011;41082;52.822;6.666;2023-07-09T05:32:48;9.70;;;6.70;;
55210;SDS011;41082;52.822;6.666;2023-07-09T05:35:14;12.20;;;6.97;;
55210;SDS011;41082;52.822;6.666;2023-07-09T05:37:40;9.35;;;6.80;;
55210;SDS011;41082;52.822;6.666;2023-07-09T05:40:06;12.00;;;7.18;;
55210;SDS011;41082;52.822;6.666;2023-07-09T05:42:33;12.10;;;7.18;;
55210;SDS011;41082;52.822;6.666;2023-07-09T05:44:59;8.05;;;6.75;;
55210;SDS011;41082;52.822;6.666;2023-07-09T05:47:25;10.18;;;6.93;;
55210;SDS011;41082;52.822;6.666;2023-07-09T05:49:51;9.38;;;7.20;;
55210;SDS011;41082;52.822;6.666;2023-07-09T05:52:17;10.60;;;7.45;;
55210;SDS011;41082;52.822;6.666;2023-07-09T05:54:44;9.07;;;7.35;;
55210;SDS011;41082;52.822;6.666;2023-07-09T05:57:10;8.75;;;7.35;;
55210;SDS011;41082;52.822;6.666;2023-07-09T05:59:36;10.40;;;8.90;;
55210;SDS011;41082;52.822;6.666;2023-07-09T06:02:02;13.25;;;8.38;;
55210;SDS011;41082;52.822;6.666;2023-07-09T06:04:28;11.82;;;8.57;;
55210;SDS011;41082;52.822;6.666;2023-07-09T06:06:56;10.98;;;7.45;;
55210;SDS011;41082;52.822;6.666;2023-07-09T06:09:22;11.07;;;8.02;;
55210;SDS011;41082;52.822;6.666;2023-07-09T06:11:48;10.35;;;8.38;;
55210;SDS011;41082;52.822;6.666;2023-07-09T06:14:13;10.88;;;7.65;;
55210;SDS011;41082;52.822;6.666;2023-07-09T06:16:39;10.80;;;7.72;;
55210;SDS011;41082;52.822;6.666;2023-07-09T06:19:05;8.65;;;7.75;;
55210;SDS011;41082;52.822;6.666;2023-07-09T06:21:30;11.57;;;7.80;;
55210;SDS011;41082;52.822;6.666;2023-07-09T06:23:56;9.40;;;7.70;;
55210;SDS011;41082;52.822;6.666;2023-07-09T06:26:21;11.68;;;8.50;;
55210;SDS011;41082;52.822;6.666;2023-07-09T06:28:47;11.95;;;7.97;;
55210;SDS011;41082;52.822;6.666;2023-07-09T06:31:12;9.43;;;7.97;;
55210;SDS011;41082;52.822;6.666;2023-07-09T06:33:38;11.80;;;8.57;;
55210;SDS011;41082;52.822;6.666;2023-07-09T06:36:03;12.15;;;8.23;;
55210;SDS011;41082;52.822;6.666;2023-07-09T06:38:29;10.02;;;7.88;;
55210;SDS011;41082;52.822;6.666;2023-07-09T06:40:56;11.55;;;8.63;;
55210;SDS011;41082;52.822;6.666;2023-07-09T06:43:22;8.10;;;6.90;;
55210;SDS011;41082;52.822;6.666;2023-07-09T06:45:58;8.60;;;7.03;;
55210;SDS011;41082;52.822;6.666;2023-07-09T06:48:25;13.30;;;7.82;;
55210;SDS011;41082;52.822;6.666;2023-07-09T06:50:53;11.55;;;7.85;;
55210;SDS011;41082;52.822;6.666;2023-07-09T06:53:20;10.50;;;7.47;;
55210;SDS011;41082;52.822;6.666;2023-07-09T06:55:46;9.93;;;7.22;;
55210;SDS011;41082;52.822;6.666;2023-07-09T06:58:13;11.43;;;6.97;;
55210;SDS011;41082;52.822;6.666;2023-07-09T07:00:40;12.27;;;7.38;;
55210;SDS011;41082;52.822;6.666;2023-07-09T07:03:06;11.50;;;7.00;;
55210;SDS011;41082;52.822;6.666;2023-07-09T07:05:31;8.40;;;6.30;;
55210;SDS011;41082;52.822;6.666;2023-07-09T07:07:57;8.85;;;6.38;;
55210;SDS011;41082;52.822;6.666;2023-07-09T07:10:24;10.75;;;6.40;;
55210;SDS011;41082;52.822;6.666;2023-07-09T07:12:51;9.00;;;7.10;;
55210;SDS011;41082;52.822;6.666;2023-07-09T07:15:17;13.98;;;7.30;;
55210;SDS011;41082;52.822;6.666;2023-07-09T07:17:44;9.73;;;6.38;;
55210;SDS011;41082;52.822;6.666;2023-07-09T07:20:10;8.50;;;6.20;;
55210;SDS011;41082;52.822;6.666;2023-07-09T07:22:37;7.90;;;6.30;;
55210;SDS011;41082;52.822;6.666;2023-07-09T07:25:04;9.30;;;6.47;;
55210;SDS011;41082;52.822;6.666;2023-07-09T07:27:30;7.90;;;6.20;;
55210;SDS011;41082;52.822;6.666;2023-07-09T07:29:56;11.30;;;6.80;;
55210;SDS011;41082;52.822;6.666;2023-07-09T07:32:22;10.15;;;6.20;;
55210;SDS011;41082;52.822;6.666;2023-07-09T07:34:48;8.75;;;6.75;;
55210;SDS011;41082;52.822;6.666;2023-07-09T07:37:14;9.50;;;6.00;;
55210;SDS011;41082;52.822;6.666;2023-07-09T07:39:40;8.85;;;6.65;;
55210;SDS011;41082;52.822;6.666;2023-07-09T07:42:07;10.45;;;6.57;;
55210;SDS011;41082;52.822;6.666;2023-07-09T07:44:32;8.27;;;6.30;;
55210;SDS011;41082;52.822;6.666;2023-07-09T07:46:58;7.93;;;6.80;;
55210;SDS011;41082;52.822;6.666;2023-07-09T07:49:23;8.65;;;6.45;;
55210;SDS011;41082;52.822;6.666;2023-07-09T07:51:49;8.88;;;5.90;;
55210;SDS011;41082;52.822;6.666;2023-07-09T07:54:15;7.90;;;6.47;;
55210;SDS011;41082;52.822;6.666;2023-07-09T07:56:43;8.48;;;5.75;;
55210;SDS011;41082;52.822;6.666;2023-07-09T07:59:08;7.32;;;6.22;;
55210;SDS011;41082;52.822;6.666;2023-07-09T08:01:34;8.27;;;5.78;;
55210;SDS011;41082;52.822;6.666;2023-07-09T08:04:01;8.73;;;6.38;;
55210;SDS011;41082;52.822;6.666;2023-07-09T08:06:27;6.50;;;5.55;;
55210;SDS011;41082;52.822;6.666;2023-07-09T08:08:53;7.18;;;5.95;;
55210;SDS011;41082;52.822;6.666;2023-07-09T08:11:18;6.97;;;5.50;;
55210;SDS011;41082;52.822;6.666;2023-07-09T08:13:44;9.65;;;6.32;;
55210;SDS011;41082;52.822;6.666;2023-07-09T08:16:10;8.00;;;5.85;;
55210;SDS011;41082;52.822;6.666;2023-07-09T08:18:37;7.28;;;5.45;;
55210;SDS011;41082;52.822;6.666;2023-07-09T08:21:03;9.48;;;5.90;;
55210;SDS011;41082;52.822;6.666;2023-07-09T08:23:29;6.35;;;5.45;;
55210;SDS011;41082;52.822;6.666;2023-07-09T08:25:58;7.97;;;5.85;;
55210;SDS011;41082;52.822;6.666;2023-07-09T08:28:27;8.18;;;6.13;;
55210;SDS011;41082;52.822;6.666;2023-07-09T08:30:54;8.23;;;6.05;;
55210;SDS011;41082;52.822;6.666;2023-07-09T08:33:20;9.70;;;5.40;;
55210;SDS011;41082;52.822;6.666;2023-07-09T08:35:48;7.53;;;6.07;;
55210;SDS011;41082;52.822;6.666;2023-07-09T08:38:15;8.85;;;5.47;;
55210;SDS011;41082;52.822;6.666;2023-07-09T08:40:40;8.50;;;5.53;;
55210;SDS011;41082;52.822;6.666;2023-07-09T08:43:17;7.40;;;5.38;;
55210;SDS011;41082;52.822;6.666;2023-07-09T08:46:12;8.55;;;5.10;;
55210;SDS011;41082;52.822;6.666;2023-07-09T08:48:52;5.95;;;5.25;;
55210;SDS011;41082;52.822;6.666;2023-07-09T08:54:27;5.40;;;4.57;;
55210;SDS011;41082;52.822;6.666;2023-07-09T08:57:00;5.20;;;4.55;;
55210;SDS011;41082;52.822;6.666;2023-07-09T08:59:39;8.18;;;4.80;;
55210;SDS011;41082;52.822;6.666;2023-07-09T09:02:05;6.30;;;4.70;;
55210;SDS011;41082;52.822;6.666;2023-07-09T09:04:46;7.75;;;4.03;;
55210;SDS011;41082;52.822;6.666;2023-07-09T09:07:19;6.10;;;4.13;;
55210;SDS011;41082;52.822;6.666;2023-07-09T09:10:05;5.57;;;4.25;;
55210;SDS011;41082;52.822;6.666;2023-07-09T09:15:04;6.25;;;4.75;;
55210;SDS011;41082;52.822;6.666;2023-07-09T09:17:39;6.30;;;4.22;;
55210;SDS011;41082;52.822;6.666;2023-07-09T09:20:16;5.35;;;4.50;;
55210;SDS011;41082;52.822;6.666;2023-07-09T09:22:46;7.38;;;4.40;;
55210;SDS011;41082;52.822;6.666;2023-07-09T09:25:31;6.60;;;4.40;;
55210;SDS011;41082;52.822;6.666;2023-07-09T09:27:59;6.18;;;4.47;;
55210;SDS011;41082;52.822;6.666;2023-07-09T09:30:26;5.55;;;3.72;;
55210;SDS011;41082;52.822;6.666;2023-07-09T09:32:56;6.55;;;4.55;;
55210;SDS011;41082;52.822;6.666;2023-07-09T09:35:27;7.25;;;4.30;;
55210;SDS011;41082;52.822;6.666;2023-07-09T09:37:58;7.20;;;3.70;;
55210;SDS011;41082;52.822;6.666;2023-07-09T09:40:26;5.45;;;3.97;;
55210;SDS011;41082;52.822;6.666;2023-07-09T09:42:55;4.68;;;3.63;;
55210;SDS011;41082;52.822;6.666;2023-07-09T09:45:26;6.18;;;3.83;;
55210;SDS011;41082;52.822;6.666;2023-07-09T09:48:00;6.88;;;3.30;;
55210;SDS011;41082;52.822;6.666;2023-07-09T09:50:34;5.15;;;3.72;;
55210;SDS011;41082;52.822;6.666;2023-07-09T09:52:59;7.07;;;4.25;;
55210;SDS011;41082;52.822;6.666;2023-07-09T09:55:30;6.65;;;3.75;;
55210;SDS011;41082;52.822;6.666;2023-07-09T09:57:57;7.80;;;3.55;;
55210;SDS011;41082;52.822;6.666;2023-07-09T10:00:24;7.47;;;3.97;;
55210;SDS011;41082;52.822;6.666;2023-07-09T10:02:57;6.10;;;3.55;;
55210;SDS011;41082;52.822;6.666;2023-07-09T10:05:39;5.68;;;3.50;;
55210;SDS011;41082;52.822;6.666;2023-07-09T10:08:12;6.13;;;3.50;;
55210;SDS011;41082;52.822;6.666;2023-07-09T10:10:47;6.03;;;3.83;;
55210;SDS011;41082;52.822;6.666;2023-07-09T10:13:19;4.88;;;3.05;;
55210;SDS011;41082;52.822;6.666;2023-07-09T10:19:17;7.18;;;3.50;;
55210;SDS011;41082;52.822;6.666;2023-07-09T10:22:00;4.43;;;3.60;;
55210;SDS011;41082;52.822;6.666;2023-07-09T10:27:13;7.05;;;3.60;;
55210;SDS011;41082;52.822;6.666;2023-07-09T10:32:42;5.47;;;3.60;;
55210;SDS011;41082;52.822;6.666;2023-07-09T10:35:15;6.13;;;3.60;;
55210;SDS011;41082;52.822;6.666;2023-07-09T10:38:25;6.82;;;3.85;;
55210;SDS011;41082;52.822;6.666;2023-07-09T10:41:08;8.35;;;3.88;;
55210;SDS011;41082;52.822;6.666;2023-07-09T10:46:06;7.68;;;3.58;;
55210;SDS011;41082;52.822;6.666;2023-07-09T10:48:47;6.00;;;3.35;;
55210;SDS011;41082;52.822;6.666;2023-07-09T10:51:32;4.63;;;3.30;;
55210;SDS011;41082;52.822;6.666;2023-07-09T10:56:47;6.28;;;3.20;;
55210;SDS011;41082;52.822;6.666;2023-07-09T10:59:24;5.82;;;3.25;;
55210;SDS011;41082;52.822;6.666;2023-07-09T11:01:56;5.97;;;3.22;;
55210;SDS011;41082;52.822;6.666;2023-07-09T11:05:05;4.50;;;3.08;;
55210;SDS011;41082;52.822;6.666;2023-07-09T11:07:33;6.38;;;3.63;;
55210;SDS011;41082;52.822;6.666;2023-07-09T11:10:18;6.65;;;3.22;;
55210;SDS011;41082;52.822;6.666;2023-07-09T11:12:53;5.00;;;3.13;;
55210;SDS011;41082;52.822;6.666;2023-07-09T11:15:31;4.20;;;3.30;;
55210;SDS011;41082;52.822;6.666;2023-07-09T11:18:04;7.03;;;3.63;;
55210;SDS011;41082;52.822;6.666;2023-07-09T11:20:35;6.07;;;3.15;;
55210;SDS011;41082;52.822;6.666;2023-07-09T11:23:15;3.85;;;3.45;;
55210;SDS011;41082;52.822;6.666;2023-07-09T11:25:44;4.90;;;3.33;;
55210;SDS011;41082;52.822;6.666;2023-07-09T11:28:11;5.93;;;3.47;;
55210;SDS011;41082;52.822;6.666;2023-07-09T11:30:48;5.57;;;3.35;;
55210;SDS011;41082;52.822;6.666;2023-07-09T11:33:45;5.47;;;3.92;;
55210;SDS011;41082;52.822;6.666;2023-07-09T11:36:10;5.75;;;3.50;;
55210;SDS011;41082;52.822;6.666;2023-07-09T11:38:42;6.57;;;4.40;;
55210;SDS011;41082;52.822;6.666;2023-07-09T11:44:24;4.70;;;3.47;;
55210;SDS011;41082;52.822;6.666;2023-07-09T11:52:24;4.88;;;3.50;;
55210;SDS011;41082;52.822;6.666;2023-07-09T11:57:57;7.22;;;3.63;;
55210;SDS011;41082;52.822;6.666;2023-07-09T12:00:27;9.00;;;3.63;;
55210;SDS011;41082;52.822;6.666;2023-07-09T12:02:56;4.45;;;3.30;;
55210;SDS011;41082;52.822;6.666;2023-07-09T12:05:26;7.28;;;3.85;;
55210;SDS011;41082;52.822;6.666;2023-07-09T12:07:54;6.45;;;4.00;;
55210;SDS011;41082;52.822;6.666;2023-07-09T12:10:22;6.82;;;3.67;;
55210;SDS011;41082;52.822;6.666;2023-07-09T12:12:53;5.45;;;4.00;;
55210;SDS011;41082;52.822;6.666;2023-07-09T12:15:25;4.20;;;3.60;;
55210;SDS011;41082;52.822;6.666;2023-07-09T12:18:00;4.57;;;3.35;;
55210;SDS011;41082;52.822;6.666;2023-07-09T12:20:30;5.53;;;3.65;;
55210;SDS011;41082;52.822;6.666;2023-07-09T12:22:59;6.30;;;3.63;;
55210;SDS011;41082;52.822;6.666;2023-07-09T12:25:25;7.70;;;3.47;;
55210;SDS011;41082;52.822;6.666;2023-07-09T12:27:53;5.53;;;3.38;;
55210;SDS011;41082;52.822;6.666;2023-07-09T12:30:19;4.97;;;3.85;;
55210;SDS011;41082;52.822;6.666;2023-07-09T12:32:48;5.78;;;3.70;;
55210;SDS011;41082;52.822;6.666;2023-07-09T12:35:17;5.55;;;3.25;;
55210;SDS011;41082;52.822;6.666;2023-07-09T12:37:44;5.05;;;3.47;;
55210;SDS011;41082;52.822;6.666;2023-07-09T12:40:13;5.60;;;3.17;;
55210;SDS011;41082;52.822;6.666;2023-07-09T12:42:41;6.07;;;3.58;;
55210;SDS011;41082;52.822;6.666;2023-07-09T12:45:18;4.68;;;3.38;;
55210;SDS011;41082;52.822;6.666;2023-07-09T12:47:46;4.88;;;3.15;;
55210;SDS011;41082;52.822;6.666;2023-07-09T12:50:17;6.68;;;3.40;;
55210;SDS011;41082;52.822;6.666;2023-07-09T12:52:52;4.43;;;2.92;;
55210;SDS011;41082;52.822;6.666;2023-07-09T12:55:22;5.57;;;3.17;;
55210;SDS011;41082;52.822;6.666;2023-07-09T12:57:50;4.75;;;3.22;;
55210;SDS011;41082;52.822;6.666;2023-07-09T13:00:26;3.65;;;2.90;;
55210;SDS011;41082;52.822;6.666;2023-07-09T13:02:57;6.75;;;3.17;;
55210;SDS011;41082;52.822;6.666;2023-07-09T13:05:24;5.18;;;3.60;;
55210;SDS011;41082;52.822;6.666;2023-07-09T13:07:54;5.75;;;3.05;;
55210;SDS011;41082;52.822;6.666;2023-07-09T13:10:29;5.78;;;2.88;;
55210;SDS011;41082;52.822;6.666;2023-07-09T13:13:03;5.40;;;2.88;;
55210;SDS011;41082;52.822;6.666;2023-07-09T13:15:31;5.07;;;3.10;;
55210;SDS011;41082;52.822;6.666;2023-07-09T13:18:05;4.35;;;3.03;;
55210;SDS011;41082;52.822;6.666;2023-07-09T13:20:32;6.40;;;3.28;;
55210;SDS011;41082;52.822;6.666;2023-07-09T13:23:04;5.63;;;3.33;;
55210;SDS011;41082;52.822;6.666;2023-07-09T13:25:34;6.95;;;3.28;;
55210;SDS011;41082;52.822;6.666;2023-07-09T13:28:01;5.00;;;2.90;;
55210;SDS011;41082;52.822;6.666;2023-07-09T13:30:28;6.18;;;3.22;;
55210;SDS011;41082;52.822;6.666;2023-07-09T13:32:53;7.70;;;3.15;;
55210;SDS011;41082;52.822;6.666;2023-07-09T13:35:19;4.63;;;3.28;;
55210;SDS011;41082;52.822;6.666;2023-07-09T13:37:46;5.35;;;3.13;;
55210;SDS011;41082;52.822;6.666;2023-07-09T13:40:15;5.45;;;3.50;;
55210;SDS011;41082;52.822;6.666;2023-07-09T13:42:44;8.38;;;3.50;;
55210;SDS011;41082;52.822;6.666;2023-07-09T13:45:31;5.40;;;3.05;;
55210;SDS011;41082;52.822;6.666;2023-07-09T13:47:55;5.40;;;2.90;;
55210;SDS011;41082;52.822;6.666;2023-07-09T13:50:21;7.22;;;3.70;;
55210;SDS011;41082;52.822;6.666;2023-07-09T13:52:48;6.85;;;3.38;;
55210;SDS011;41082;52.822;6.666;2023-07-09T13:55:18;5.88;;;3.42;;
55210;SDS011;41082;52.822;6.666;2023-07-09T13:57:47;4.18;;;2.80;;
55210;SDS011;41082;52.822;6.666;2023-07-09T14:00:13;4.65;;;3.15;;
55210;SDS011;41082;52.822;6.666;2023-07-09T14:02:39;6.38;;;3.05;;
55210;SDS011;41082;52.822;6.666;2023-07-09T14:05:06;3.90;;;3.42;;
55210;SDS011;41082;52.822;6.666;2023-07-09T14:07:35;6.68;;;3.42;;
55210;SDS011;41082;52.822;6.666;2023-07-09T14:10:03;4.22;;;3.30;;
55210;SDS011;41082;52.822;6.666;2023-07-09T14:12:30;4.72;;;3.25;;
55210;SDS011;41082;52.822;6.666;2023-07-09T14:14:57;4.63;;;3.38;;
55210;SDS011;41082;52.822;6.666;2023-07-09T14:17:24;4.45;;;3.20;;
55210;SDS011;41082;52.822;6.666;2023-07-09T14:19:51;4.22;;;3.20;;
55210;SDS011;41082;52.822;6.666;2023-07-09T14:25:04;5.82;;;3.30;;
55210;SDS011;41082;52.822;6.666;2023-07-09T14:27:31;4.88;;;3.40;;
55210;SDS011;41082;52.822;6.666;2023-07-09T14:29:56;6.78;;;4.20;;
55210;SDS011;41082;52.822;6.666;2023-07-09T14:34:58;5.00;;;3.53;;
55210;SDS011;41082;52.822;6.666;2023-07-09T14:37:24;8.68;;;3.90;;
55210;SDS011;41082;52.822;6.666;2023-07-09T14:39:51;8.85;;;3.70;;
55210;SDS011;41082;52.822;6.666;2023-07-09T14:42:17;5.10;;;3.25;;
55210;SDS011;41082;52.822;6.666;2023-07-09T14:44:43;6.32;;;3.40;;
55210;SDS011;41082;52.822;6.666;2023-07-09T14:47:11;6.28;;;3.60;;
55210;SDS011;41082;52.822;6.666;2023-07-09T14:49:43;7.38;;;3.38;;
55210;SDS011;41082;52.822;6.666;2023-07-09T14:52:13;6.57;;;3.33;;
55210;SDS011;41082;52.822;6.666;2023-07-09T14:54:43;6.38;;;3.70;;
55210;SDS011;41082;52.822;6.666;2023-07-09T14:57:20;8.82;;;3.50;;
55210;SDS011;41082;52.822;6.666;2023-07-09T14:59:47;6.65;;;3.50;;
55210;SDS011;41082;52.822;6.666;2023-07-09T15:04:46;6.95;;;3.75;;
55210;SDS011;41082;52.822;6.666;2023-07-09T15:07:13;7.95;;;3.42;;
55210;SDS011;41082;52.822;6.666;2023-07-09T15:09:39;5.68;;;3.42;;
55210;SDS011;41082;52.822;6.666;2023-07-09T15:12:07;5.03;;;4.20;;
55210;SDS011;41082;52.822;6.666;2023-07-09T15:14:44;10.20;;;3.67;;
55210;SDS011;41082;52.822;6.666;2023-07-09T15:17:11;10.75;;;4.60;;
55210;SDS011;41082;52.822;6.666;2023-07-09T15:19:37;11.32;;;4.82;;
55210;SDS011;41082;52.822;6.666;2023-07-09T15:22:03;12.23;;;4.93;;
55210;SDS011;41082;52.822;6.666;2023-07-09T15:24:30;12.68;;;5.28;;
55210;SDS011;41082;52.822;6.666;2023-07-09T15:26:57;13.05;;;5.55;;
55210;SDS011;41082;52.822;6.666;2023-07-09T15:29:27;10.13;;;5.43;;
55210;SDS011;41082;52.822;6.666;2023-07-09T15:31:54;10.95;;;5.55;;
55210;SDS011;41082;52.822;6.666;2023-07-09T15:34:19;11.27;;;5.28;;
55210;SDS011;41082;52.822;6.666;2023-07-09T15:36:47;8.80;;;5.55;;
55210;SDS011;41082;52.822;6.666;2023-07-09T15:39:15;11.00;;;5.93;;